createdAt,value
2022-08-22T00:15:43.111Z,99.70
2022-08-22T00:18:38.460Z,99.90
2022-08-22T00:21:32.796Z,99.90
2022-08-22T00:24:29.917Z,99.90
2022-08-22T00:27:22.324Z,99.90
2022-08-22T00:30:11.511Z,99.90
2022-08-22T00:33:03.201Z,99.90
2022-08-22T00:35:55.476Z,99.90
2022-08-22T00:38:47.703Z,99.90
2022-08-22T00:42:07.075Z,99.90
2022-08-22T00:45:19.967Z,99.90
2022-08-22T00:48:28.736Z,99.90
2022-08-22T00:51:45.516Z,99.90
2022-08-22T00:54:55.585Z,99.90
2022-08-22T00:57:55.742Z,99.90
2022-08-22T01:00:46.054Z,99.90
2022-08-22T01:03:53.632Z,99.90
2022-08-22T01:06:52.660Z,99.90
2022-08-22T01:09:51.334Z,99.90
2022-08-22T01:12:53.167Z,99.90
2022-08-22T01:19:00.235Z,99.90
2022-08-22T01:22:22.244Z,99.90
2022-08-22T01:25:37.390Z,99.90
2022-08-22T01:28:59.291Z,99.90
2022-08-22T01:32:23.317Z,99.90
2022-08-22T01:35:42.072Z,99.90
2022-08-22T01:38:54.081Z,99.90
2022-08-22T01:42:00.419Z,99.90
2022-08-22T01:45:15.916Z,99.90
2022-08-22T01:48:12.420Z,99.90
2022-08-22T01:51:13.223Z,99.90
2022-08-22T01:54:06.311Z,99.90
2022-08-22T02:11:11.797Z,99.90
2022-08-22T02:14:04.547Z,99.90
2022-08-22T02:22:44.489Z,99.90
2022-08-22T02:25:51.565Z,99.90
2022-08-22T02:31:48.380Z,99.90
2022-08-22T02:34:40.773Z,99.90
2022-08-22T02:37:38.504Z,99.90
2022-08-22T02:40:31.391Z,99.90
2022-08-22T02:43:24.357Z,99.90
2022-08-22T02:46:23.208Z,99.90
2022-08-22T02:49:22.062Z,99.90
2022-08-22T02:52:19.099Z,99.90
2022-08-22T02:55:11.253Z,99.90
2022-08-22T02:58:04.196Z,99.90
2022-08-22T03:01:15.220Z,99.90
2022-08-22T03:04:26.155Z,99.90
2022-08-22T03:07:23.049Z,99.90
2022-08-22T03:10:21.544Z,99.90
2022-08-22T03:13:11.889Z,99.90
2022-08-22T03:16:05.381Z,99.90
2022-08-22T03:18:58.795Z,99.90
2022-08-22T03:21:53.340Z,99.90
2022-08-22T03:24:48.792Z,99.90
2022-08-22T03:27:41.826Z,99.90
2022-08-22T03:30:34.815Z,99.90
2022-08-22T03:33:26.048Z,99.90
2022-08-22T03:36:28.105Z,99.90
2022-08-22T03:39:19.388Z,99.90
2022-08-22T03:42:46.820Z,99.90
2022-08-22T03:46:08.161Z,99.90
2022-08-22T03:49:42.954Z,99.90
2022-08-22T03:53:03.228Z,99.90
2022-08-22T03:56:31.583Z,99.90
2022-08-22T03:59:51.412Z,99.90
2022-08-22T04:03:14.777Z,99.90
2022-08-22T04:06:29.256Z,99.90
2022-08-22T04:10:01.092Z,99.90
2022-08-22T04:13:05.644Z,99.90
2022-08-22T04:16:30.843Z,99.90
2022-08-22T04:19:42.271Z,99.90
2022-08-22T04:23:13.005Z,99.90
2022-08-22T04:26:11.941Z,99.90
2022-08-22T04:29:08.924Z,99.90
2022-08-22T04:32:01.879Z,99.90
2022-08-22T04:34:51.998Z,99.90
2022-08-22T04:37:50.550Z,99.90
2022-08-22T04:40:44.827Z,99.90
2022-08-22T04:43:37.951Z,99.90
2022-08-22T04:46:37.056Z,99.90
2022-08-22T04:49:29.781Z,99.90
2022-08-22T04:52:22.788Z,99.90
2022-08-22T04:55:22.354Z,99.90
2022-08-22T04:58:23.565Z,99.90
2022-08-22T05:01:16.558Z,99.90
2022-08-22T05:04:09.468Z,99.90
2022-08-22T05:07:03.343Z,99.90
2022-08-22T05:09:53.927Z,99.90
2022-08-22T05:12:44.684Z,99.90
2022-08-22T05:15:35.158Z,99.90
2022-08-22T05:18:29.821Z,99.90
2022-08-22T05:21:27.179Z,99.90
2022-08-22T05:24:22.304Z,99.90
2022-08-22T05:27:12.875Z,99.90
2022-08-22T05:30:03.183Z,99.90
2022-08-22T05:32:54.146Z,99.90
2022-08-22T05:35:49.542Z,99.90
2022-08-22T05:38:44.072Z,99.90
2022-08-22T05:41:36.401Z,99.90
2022-08-22T05:44:27.226Z,99.90
2022-08-22T05:47:23.695Z,99.90
2022-08-22T05:50:14.737Z,99.90
2022-08-22T05:53:07.242Z,99.90
2022-08-22T05:56:00.750Z,99.90
2022-08-22T05:58:52.188Z,99.90
2022-08-22T06:01:47.208Z,99.90
2022-08-22T06:04:38.584Z,99.90
2022-08-22T06:07:31.103Z,99.90
2022-08-22T06:10:23.228Z,99.90
2022-08-22T06:13:15.196Z,99.90
2022-08-22T06:16:09.503Z,99.90
2022-08-22T06:18:59.120Z,99.90
2022-08-22T06:21:49.084Z,99.90
2022-08-22T06:24:38.688Z,99.90
2022-08-22T06:27:31.072Z,99.90
2022-08-22T06:30:21.278Z,99.90
2022-08-22T06:33:12.451Z,99.90
2022-08-22T06:36:21.224Z,99.90
2022-08-22T06:39:16.162Z,99.90
2022-08-22T06:42:10.362Z,99.90
2022-08-22T06:45:06.858Z,99.90
2022-08-22T06:48:00.930Z,99.90
2022-08-22T06:50:52.747Z,99.90
2022-08-22T06:53:48.182Z,99.90
2022-08-22T06:56:40.268Z,99.90
2022-08-22T06:59:30.378Z,99.90
2022-08-22T07:02:24.032Z,99.90
2022-08-22T07:05:19.970Z,99.90
2022-08-22T07:08:08.880Z,99.90
2022-08-22T07:11:08.229Z,99.90
2022-08-22T07:13:58.349Z,99.90
2022-08-22T07:16:49.843Z,99.90
2022-08-22T07:19:38.315Z,99.90
2022-08-22T07:22:31.116Z,99.90
2022-08-22T07:28:19.510Z,99.90
2022-08-22T07:31:17.886Z,99.90
2022-08-22T07:34:24.060Z,99.90
2022-08-22T07:37:17.764Z,99.90
2022-08-22T07:40:15.419Z,99.90
2022-08-22T07:43:10.317Z,99.90
2022-08-22T07:46:01.378Z,99.90
2022-08-22T07:49:08.572Z,99.90
2022-08-22T07:51:58.839Z,99.90
2022-08-22T07:54:50.490Z,99.90
2022-08-22T07:57:41.906Z,99.90
2022-08-22T08:00:29.865Z,99.90
2022-08-22T08:03:18.135Z,99.90
2022-08-22T08:06:05.625Z,99.90
2022-08-22T08:08:54.069Z,99.90
2022-08-22T08:11:44.848Z,99.90
2022-08-22T08:14:37.321Z,99.90
2022-08-22T08:17:31.851Z,99.90
2022-08-22T08:20:22.955Z,99.90
2022-08-22T08:23:11.950Z,99.90
2022-08-22T08:26:05.060Z,99.90
2022-08-22T08:28:54.949Z,99.90
2022-08-22T08:31:45.160Z,99.90
2022-08-22T08:34:34.455Z,99.90
2022-08-22T08:37:28.770Z,99.90
2022-08-22T08:40:42.596Z,99.90
2022-08-22T08:43:45.998Z,99.90
2022-08-22T08:47:06.294Z,99.90
2022-08-22T08:50:15.546Z,99.90
2022-08-22T08:53:35.315Z,99.90
2022-08-22T08:56:31.344Z,99.90
2022-08-22T08:59:44.428Z,99.90
2022-08-22T09:02:50.860Z,99.90
2022-08-22T09:06:16.753Z,99.90
2022-08-22T09:09:23.963Z,99.90
2022-08-22T09:12:34.608Z,99.90
2022-08-22T09:15:41.717Z,99.90
2022-08-22T09:18:57.840Z,99.90
2022-08-22T09:22:26.063Z,99.90
2022-08-22T09:25:36.813Z,97.70
2022-08-22T09:28:32.301Z,94.00
2022-08-22T09:34:58.909Z,86.70
2022-08-22T09:38:05.518Z,83.70
2022-08-22T09:41:02.298Z,78.70
2022-08-22T09:43:58.437Z,78.50
2022-08-22T09:46:58.494Z,75.70
2022-08-22T09:50:01.635Z,73.50
2022-08-22T09:53:03.000Z,70.10
2022-08-22T09:55:57.148Z,64.90
2022-08-22T09:58:50.609Z,62.70
2022-08-22T10:01:48.199Z,62.70
2022-08-22T10:05:00.259Z,60.00
2022-08-22T10:08:12.812Z,56.80
2022-08-22T10:11:26.755Z,55.40
2022-08-22T10:14:22.072Z,51.40
2022-08-22T10:17:17.031Z,49.80
2022-08-22T10:20:20.807Z,49.30
2022-08-22T10:23:18.570Z,50.40
2022-08-22T10:26:29.097Z,49.10
2022-08-22T10:29:41.344Z,48.00
2022-08-22T10:32:35.029Z,45.70
2022-08-22T10:35:33.934Z,47.30
2022-08-22T10:38:25.805Z,51.20
2022-08-22T10:44:11.114Z,54.60
2022-08-22T10:47:06.581Z,54.20
2022-08-22T10:49:56.535Z,54.00
2022-08-22T10:52:49.767Z,52.80
2022-08-22T10:55:43.054Z,54.60
2022-08-22T10:58:37.585Z,55.10
2022-08-22T11:01:37.460Z,55.60
2022-08-22T11:04:48.057Z,57.40
2022-08-22T11:07:50.381Z,57.80
2022-08-22T11:16:45.527Z,61.30
2022-08-22T11:31:39.407Z,63.40
2022-08-22T11:34:46.894Z,62.00
2022-08-22T11:37:48.861Z,57.00
2022-08-22T11:52:41.376Z,61.00
2022-08-22T11:55:34.333Z,62.90
2022-08-22T11:58:31.725Z,63.50
2022-08-22T12:01:23.297Z,63.50
2022-08-22T12:04:16.712Z,63.20
2022-08-22T12:07:14.857Z,62.10
2022-08-22T12:10:06.850Z,58.40
2022-08-22T12:13:07.029Z,55.90
2022-08-22T12:16:04.675Z,55.50
2022-08-22T12:18:59.887Z,54.40
2022-08-22T12:22:11.494Z,56.10
2022-08-22T12:25:09.561Z,56.90
2022-08-22T12:28:13.885Z,58.40
2022-08-22T12:31:14.654Z,58.60
2022-08-22T12:34:12.161Z,60.70
2022-08-22T12:37:08.147Z,61.00
2022-08-22T12:40:30.901Z,62.10
2022-08-22T12:43:34.062Z,58.90
2022-08-22T12:46:47.279Z,58.40
2022-08-22T12:49:49.927Z,56.10
2022-08-22T12:53:00.551Z,54.40
2022-08-22T12:56:03.156Z,55.10
2022-08-22T12:59:17.667Z,57.70
2022-08-22T13:02:16.649Z,59.10
2022-08-22T13:05:13.708Z,59.50
2022-08-22T13:08:10.152Z,59.10
2022-08-22T13:11:01.217Z,58.10
2022-08-22T13:13:56.554Z,58.00
2022-08-22T13:16:48.911Z,58.10
2022-08-22T13:19:50.352Z,57.70
2022-08-22T13:22:41.151Z,56.20
2022-08-22T13:26:10.112Z,56.20
2022-08-22T13:29:24.742Z,56.20
2022-08-22T13:32:11.320Z,56.00
2022-08-22T13:35:00.420Z,56.70
2022-08-22T13:37:50.151Z,56.90
2022-08-22T13:40:39.212Z,58.40
2022-08-22T13:43:30.117Z,59.00
2022-08-22T13:46:26.037Z,59.00
2022-08-22T13:49:20.241Z,57.00
2022-08-22T13:52:29.658Z,56.20
2022-08-22T13:55:21.851Z,55.50
2022-08-22T13:58:27.275Z,56.10
2022-08-22T14:01:28.729Z,57.20
2022-08-22T14:04:31.880Z,57.80
2022-08-22T14:07:33.604Z,57.80
2022-08-22T14:10:24.827Z,58.40
2022-08-22T14:13:43.704Z,58.30
2022-08-22T14:16:35.640Z,58.90
2022-08-22T14:19:30.146Z,59.10
2022-08-22T14:22:32.288Z,59.10
2022-08-22T14:25:25.978Z,58.80
2022-08-22T14:28:27.695Z,58.90
2022-08-22T14:34:10.402Z,59.00
2022-08-22T14:37:03.255Z,58.30
2022-08-22T14:39:57.871Z,58.70
2022-08-22T14:42:50.954Z,59.10
2022-08-22T14:45:43.900Z,59.60
2022-08-22T14:48:40.682Z,59.40
2022-08-22T14:51:28.838Z,59.40
2022-08-22T14:57:19.972Z,59.00
2022-08-22T15:03:17.172Z,59.10
2022-08-22T15:08:59.988Z,59.80
2022-08-22T15:11:49.460Z,59.00
2022-08-22T15:14:48.939Z,59.40
2022-08-22T15:26:36.907Z,58.20
2022-08-22T15:29:27.373Z,58.70
2022-08-22T15:32:22.054Z,57.90
2022-08-22T15:35:14.160Z,59.60
2022-08-22T15:38:03.511Z,60.10
2022-08-22T15:46:31.446Z,67.30
2022-08-22T15:49:28.783Z,68.00
2022-08-22T15:52:25.956Z,68.50
2022-08-22T15:55:25.291Z,67.70
2022-08-22T15:58:21.379Z,67.80
2022-08-22T16:01:19.136Z,68.20
2022-08-22T16:04:10.625Z,67.20
2022-08-22T16:07:01.271Z,68.00
2022-08-22T16:09:53.375Z,66.70
2022-08-22T16:12:45.653Z,65.30
2022-08-22T16:16:01.603Z,64.20
2022-08-22T16:19:18.209Z,63.80
2022-08-22T16:22:13.245Z,64.30
2022-08-22T16:25:10.601Z,63.90
2022-08-22T16:27:58.885Z,64.00
2022-08-22T16:33:36.589Z,64.20
2022-08-22T16:36:45.261Z,64.60
2022-08-22T16:39:39.568Z,65.10
2022-08-22T17:11:41.589Z,63.20
2022-08-22T17:14:43.763Z,63.00
2022-08-22T18:26:35.922Z,69.30
2022-08-22T18:29:27.625Z,71.30
2022-08-22T18:32:21.961Z,71.50
2022-08-22T18:35:19.822Z,70.50
2022-08-22T18:38:19.576Z,70.50
2022-08-22T18:41:14.743Z,71.70
2022-08-22T18:44:11.441Z,72.20
2022-08-22T18:47:00.482Z,72.60
2022-08-22T18:49:54.387Z,73.00
2022-08-22T18:52:42.048Z,73.50
2022-08-22T18:55:57.020Z,73.70
2022-08-22T18:59:05.463Z,73.50
2022-08-22T19:02:09.953Z,74.30
2022-08-22T19:05:22.076Z,75.20
2022-08-22T19:08:38.882Z,75.60
2022-08-22T19:11:43.735Z,76.10
2022-08-22T19:14:47.368Z,76.60
2022-08-22T19:17:59.486Z,77.20
2022-08-22T19:21:37.634Z,77.20
2022-08-22T19:24:57.508Z,76.60
2022-08-22T19:27:47.554Z,77.50
2022-08-22T19:30:44.784Z,77.80
2022-08-22T19:33:41.695Z,77.80
2022-08-22T19:36:34.258Z,77.40
2022-08-22T19:39:54.497Z,78.20
2022-08-22T19:42:44.059Z,78.80
2022-08-22T19:48:27.274Z,79.60
2022-08-22T19:51:27.591Z,79.30
2022-08-22T19:54:20.380Z,80.60
2022-08-22T19:57:19.522Z,80.60
2022-08-22T20:00:11.275Z,79.80
2022-08-22T20:03:04.554Z,80.00
2022-08-22T20:05:58.703Z,80.10
2022-08-22T20:09:00.776Z,81.40
2022-08-22T20:11:54.984Z,81.70
2022-08-22T20:14:47.053Z,82.00
2022-08-22T20:17:44.493Z,82.30
2022-08-22T20:20:36.184Z,81.90
2022-08-22T20:23:29.137Z,82.70
2022-08-22T20:26:17.469Z,83.50
2022-08-22T20:29:08.112Z,83.80
2022-08-22T20:31:58.774Z,83.60
2022-08-22T20:34:47.554Z,83.40
2022-08-22T20:38:05.793Z,84.20
2022-08-22T20:40:56.446Z,84.80
2022-08-22T20:43:51.457Z,84.90
2022-08-22T20:46:53.155Z,84.40
2022-08-22T20:49:46.318Z,84.80
2022-08-22T20:52:35.924Z,85.00
2022-08-22T20:55:30.514Z,84.80
2022-08-22T20:58:24.647Z,85.00
2022-08-22T21:01:14.570Z,85.60
2022-08-22T21:15:32.293Z,85.70
2022-08-22T21:18:31.763Z,86.30
2022-08-22T21:21:21.230Z,87.20
2022-08-22T21:24:10.383Z,87.30
2022-08-22T21:27:01.787Z,87.70
2022-08-22T21:32:41.128Z,88.40
2022-08-22T21:35:32.617Z,88.60
2022-08-22T21:52:28.244Z,89.40
2022-08-22T21:55:16.934Z,89.70
2022-08-22T21:58:35.878Z,89.30
2022-08-22T22:01:30.261Z,89.20
2022-08-22T22:09:54.971Z,90.30
2022-08-22T22:21:07.214Z,90.90
2022-08-22T22:26:46.464Z,91.10
2022-08-22T22:57:28.279Z,91.60
2022-08-22T23:00:18.154Z,91.50
2022-08-22T23:17:06.064Z,91.60
2022-08-22T23:28:16.790Z,92.30
2022-08-22T23:31:12.176Z,92.10
2022-08-22T23:34:05.246Z,92.00
2022-08-22T23:50:51.511Z,91.90
2022-08-22T23:56:28.836Z,92.20
2022-08-22T23:59:20.271Z,92.30
